メインページ
METAR-TAF:

METAR-TAF

空港 :

ストックホルム・アーランダ, スウェーデン

ストックホルム・アーランダ空港

緯度: 59-39N, 経度: 017-57E, 海抜: 38m

現時点の気象観測

当レポートは33分前の20:20(UTC)に作成
北東の風 6kt
気温 0°C
湿度 100%
気圧 995 hPa
視程10km以上
高度500ftの雲は散在している
高度3500ftの千切れ雲あり
小雪

METAR: ESSA 112020Z 05006KT 9999 -SN SCT005 BKN035 M00/M00 Q0995 R01L/510275 R01R/SNOCLO R08/510273 TEMPO 2500 SHSN

時間: 21:53 (20:53 UTC)

予報

当レポートは3時間23分前の17:30(UTC)に作成
予報は11日の 18時(UTC)から 12日の 18時(UTC)まで有効
北東の風 7kt
視程: 8000m
高度400ftの雲はほとんどない
高度3000ftの千切れ雲あり
小雪
確率 40%
11日の 18時(UTC)から 11日の 23時(UTC)まで
視程: 2000m
高度400ftの千切れ雲あり
高度2000ftの千切れ雲あり, 積乱雲.
にわか雪
11日の 23時(UTC)から 12日の 01時(UTC)まで徐々に
視程: 4000m
高度1000ftの千切れ雲あり
小雪
12日の 01時(UTC)から 12日の 14時(UTC)まで一時的に
視程: 0400m
高度600ftの
12日の 10時(UTC)から 12日の 12時(UTC)まで徐々に
の風 10kt
12日の 14時(UTC)から 12日の 16時(UTC)まで徐々に
視程10km以上
高度2000ftの雲は散在している

TAF: ESSA 111730Z 1118/1218 05007KT 8000 -SN FEW004 BKN030 PROB40 1118/1123 2000 SHSN BKN004 BKN020CB BECMG 1123/1201 4000 -SN BKN010 TEMPO 1201/1214 0400 SN VV006 BECMG 1210/1212 35010KT BECMG 1214/1216 9999 SCT020

4,000以上の空港の気象観測と天気予報(METAR報とTAF報)

利用可能な観測所は地図上に黄色い丸と赤い丸で示す。

丸の上にカーソルを重ねると観測所名を参照できる。

次にクリックすると気象観測と天気予報を参照できる。

マップの切り替え:黒色「×」印の緑ボタンをクリックして拡大、「-」印の緑ボタンをクリックして縮小、緑色の三角印をクリックして隣りの地図に切り替え


METAR-TAF: